createdAt,value
2022-08-27T00:00:02.930Z,18.70
2022-08-27T00:01:02.930Z,18.71
2022-08-27T00:02:03.949Z,18.71
2022-08-27T00:03:02.901Z,18.71
2022-08-27T00:04:02.911Z,18.68
2022-08-27T00:05:02.901Z,18.65
2022-08-27T00:06:02.873Z,18.63
2022-08-27T00:07:02.887Z,18.65
2022-08-27T00:08:02.913Z,18.62
2022-08-27T00:09:02.843Z,18.62
2022-08-27T00:10:02.886Z,18.62
2022-08-27T00:11:02.814Z,18.60
2022-08-27T00:12:02.818Z,18.56
2022-08-27T00:13:02.804Z,18.55
2022-08-27T00:14:02.802Z,18.53
2022-08-27T00:15:02.777Z,18.50
2022-08-27T00:16:02.832Z,18.49
2022-08-27T00:17:02.756Z,18.49
2022-08-27T00:18:02.737Z,18.45
2022-08-27T00:19:03.144Z,18.45
2022-08-27T00:20:02.723Z,18.43
2022-08-27T00:21:02.747Z,18.43
2022-08-27T00:22:02.697Z,18.41
2022-08-27T00:23:02.687Z,18.41
2022-08-27T00:24:02.677Z,18.40
2022-08-27T00:25:02.664Z,18.38
2022-08-27T00:26:02.648Z,18.35
2022-08-27T00:27:02.664Z,18.35
2022-08-27T00:28:03.670Z,18.34
2022-08-27T00:29:02.643Z,18.33
2022-08-27T00:30:02.609Z,18.33
2022-08-27T00:31:02.596Z,18.29
2022-08-27T00:32:02.687Z,18.31
2022-08-27T00:33:02.591Z,18.33
2022-08-27T00:34:02.577Z,18.33
2022-08-27T00:35:02.556Z,18.33
2022-08-27T00:36:02.532Z,18.34
2022-08-27T00:37:02.524Z,18.34
2022-08-27T00:38:02.544Z,18.35
2022-08-27T00:39:02.524Z,18.37
2022-08-27T00:40:02.685Z,18.37
2022-08-27T00:41:02.492Z,18.38
2022-08-27T00:42:02.473Z,18.37
2022-08-27T00:43:02.468Z,18.35
2022-08-27T00:44:02.487Z,18.35
2022-08-27T00:45:02.444Z,18.33
2022-08-27T00:46:02.560Z,18.29
2022-08-27T00:47:02.425Z,18.29
2022-08-27T00:48:02.424Z,18.29
2022-08-27T00:49:02.408Z,18.25
2022-08-27T00:50:02.396Z,18.25
2022-08-27T00:51:02.421Z,18.26
2022-08-27T00:52:02.376Z,18.25
2022-08-27T00:53:02.390Z,18.25
2022-08-27T00:54:02.350Z,18.23
2022-08-27T00:55:02.385Z,18.23
2022-08-27T00:56:02.348Z,18.23
2022-08-27T00:57:02.328Z,18.25
2022-08-27T00:58:02.284Z,18.26
2022-08-27T00:59:02.289Z,18.26
2022-08-27T01:00:02.276Z,18.26
2022-08-27T01:01:02.316Z,18.29
2022-08-27T01:02:02.341Z,18.29
2022-08-27T01:03:02.251Z,18.28
2022-08-27T01:04:02.261Z,18.29
2022-08-27T01:05:02.231Z,18.31
2022-08-27T01:06:02.219Z,18.33
2022-08-27T01:07:02.199Z,18.31
2022-08-27T01:08:02.211Z,18.33
2022-08-27T01:09:02.172Z,18.34
2022-08-27T01:10:02.192Z,18.33
2022-08-27T01:11:02.163Z,18.34
2022-08-27T01:12:02.143Z,18.33
2022-08-27T01:13:02.132Z,18.33
2022-08-27T01:14:02.147Z,18.33
2022-08-27T01:15:02.138Z,18.34
2022-08-27T01:16:02.172Z,18.34
2022-08-27T01:17:02.124Z,18.35
2022-08-27T01:18:02.078Z,18.35
2022-08-27T01:19:02.090Z,18.34
2022-08-27T01:20:02.089Z,18.37
2022-08-27T01:21:02.045Z,18.37
2022-08-27T01:22:02.037Z,18.38
2022-08-27T01:23:02.050Z,18.38
2022-08-27T01:24:02.004Z,18.41
2022-08-27T01:25:02.025Z,18.41
2022-08-27T01:26:01.987Z,18.41
2022-08-27T01:27:01.977Z,18.41
2022-08-27T01:28:01.999Z,18.40
2022-08-27T01:29:01.958Z,18.41
2022-08-27T01:30:01.943Z,18.41
2022-08-27T01:31:01.928Z,18.41
2022-08-27T01:32:01.919Z,18.44
2022-08-27T01:33:01.921Z,18.43
2022-08-27T01:34:01.942Z,18.43
2022-08-27T01:35:01.903Z,18.43
2022-08-27T01:36:02.823Z,18.43
2022-08-27T01:37:01.878Z,18.44
2022-08-27T01:38:02.845Z,18.45
2022-08-27T01:39:01.852Z,18.43
2022-08-27T01:40:01.925Z,18.45
2022-08-27T01:41:01.834Z,18.47
2022-08-27T01:42:01.817Z,18.47
2022-08-27T01:43:01.795Z,18.47
2022-08-27T01:44:01.820Z,18.50
2022-08-27T01:45:01.784Z,18.52
2022-08-27T01:46:01.806Z,18.52
2022-08-27T01:47:01.822Z,18.50
2022-08-27T01:48:01.743Z,18.50
2022-08-27T01:49:01.736Z,18.50
2022-08-27T01:50:01.748Z,18.50
2022-08-27T01:51:01.817Z,18.50
2022-08-27T01:52:01.720Z,18.52
2022-08-27T01:53:01.699Z,18.52
2022-08-27T01:54:01.683Z,18.53
2022-08-27T01:55:01.687Z,18.55
2022-08-27T01:56:01.695Z,18.55
2022-08-27T01:57:01.658Z,18.55
2022-08-27T01:58:01.656Z,18.56
2022-08-27T01:59:01.628Z,18.55
2022-08-27T02:00:01.629Z,18.56
2022-08-27T02:01:01.669Z,18.55
2022-08-27T02:02:01.664Z,18.58
2022-08-27T02:03:01.593Z,18.58
2022-08-27T02:04:01.575Z,18.58
2022-08-27T02:05:01.564Z,18.56
2022-08-27T02:06:01.581Z,18.58
2022-08-27T02:07:01.580Z,18.58
2022-08-27T02:08:01.541Z,18.58
2022-08-27T02:09:01.519Z,18.56
2022-08-27T02:10:01.500Z,18.56
2022-08-27T02:11:01.507Z,18.56
2022-08-27T02:12:01.494Z,18.58
2022-08-27T02:13:01.485Z,18.58
2022-08-27T02:14:01.462Z,18.58
2022-08-27T02:15:02.464Z,18.59
2022-08-27T02:16:01.490Z,18.60
2022-08-27T02:17:01.435Z,18.60
2022-08-27T02:18:01.423Z,18.62
2022-08-27T02:19:01.465Z,18.63
2022-08-27T02:20:01.420Z,18.65
2022-08-27T02:21:01.415Z,18.66
2022-08-27T02:22:01.388Z,18.70
2022-08-27T02:23:01.369Z,18.70
2022-08-27T02:24:01.357Z,18.70
2022-08-27T02:25:01.368Z,18.70
2022-08-27T02:26:01.332Z,18.71
2022-08-27T02:27:01.324Z,18.71
2022-08-27T02:28:01.329Z,18.71
2022-08-27T02:29:01.312Z,18.70
2022-08-27T02:30:01.308Z,18.70
2022-08-27T02:31:01.391Z,18.68
2022-08-27T02:32:01.271Z,18.66
2022-08-27T02:33:01.259Z,18.65
2022-08-27T02:34:01.288Z,18.65
2022-08-27T02:35:01.234Z,18.63
2022-08-27T02:36:01.245Z,18.65
2022-08-27T02:37:01.214Z,18.63
2022-08-27T02:38:01.201Z,18.63
2022-08-27T02:39:01.180Z,18.65
2022-08-27T02:40:01.239Z,18.63
2022-08-27T02:41:01.191Z,18.65
2022-08-27T02:42:01.161Z,18.65
2022-08-27T02:43:01.172Z,18.63
2022-08-27T02:44:01.421Z,18.63
2022-08-27T02:45:01.122Z,18.62
2022-08-27T02:46:01.136Z,18.63
2022-08-27T02:47:01.102Z,18.63
2022-08-27T02:48:01.115Z,18.62
2022-08-27T02:49:01.083Z,18.60
2022-08-27T02:50:01.094Z,18.58
2022-08-27T02:51:01.073Z,18.56
2022-08-27T02:52:01.053Z,18.56
2022-08-27T02:53:01.025Z,18.53
2022-08-27T02:54:01.024Z,18.55
2022-08-27T02:55:01.027Z,18.53
2022-08-27T02:56:01.032Z,18.52
2022-08-27T02:57:00.995Z,18.50
2022-08-27T02:58:00.994Z,18.50
2022-08-27T02:59:01.014Z,18.52
2022-08-27T03:00:00.963Z,18.49
2022-08-27T03:01:00.947Z,18.47
2022-08-27T03:02:01.152Z,18.47
2022-08-27T03:03:01.000Z,18.49
2022-08-27T03:04:00.911Z,18.49
2022-08-27T03:05:00.938Z,18.49
2022-08-27T03:06:00.889Z,18.49
2022-08-27T03:07:00.900Z,18.47
2022-08-27T03:08:00.880Z,18.49
2022-08-27T03:09:00.865Z,18.44
2022-08-27T03:10:00.862Z,18.44
2022-08-27T03:11:00.877Z,18.44
2022-08-27T03:12:00.840Z,18.44
2022-08-27T03:13:00.822Z,18.45
2022-08-27T03:14:00.801Z,18.45
2022-08-27T03:15:00.793Z,18.44
2022-08-27T03:16:00.848Z,18.44
2022-08-27T03:17:00.789Z,18.44
2022-08-27T03:18:00.787Z,18.47
2022-08-27T03:19:00.757Z,18.45
2022-08-27T03:20:00.744Z,18.41
2022-08-27T03:21:00.719Z,18.40
2022-08-27T03:22:00.746Z,18.40
2022-08-27T03:23:00.739Z,18.38
2022-08-27T03:24:00.705Z,18.38
2022-08-27T03:25:01.716Z,18.35
2022-08-27T03:26:00.690Z,18.35
2022-08-27T03:27:00.677Z,18.35
2022-08-27T03:28:00.651Z,18.35
2022-08-27T03:29:00.715Z,18.35
2022-08-27T03:30:03.682Z,18.33
2022-08-27T03:31:00.705Z,18.33
2022-08-27T03:32:00.616Z,18.33
2022-08-27T03:33:00.597Z,18.33
2022-08-27T03:34:00.578Z,18.34
2022-08-27T03:35:00.568Z,18.34
2022-08-27T03:36:00.606Z,18.33
2022-08-27T03:37:00.559Z,18.34
2022-08-27T03:38:00.560Z,18.34
2022-08-27T03:39:00.522Z,18.31
2022-08-27T03:40:00.577Z,18.31
2022-08-27T03:41:00.504Z,18.29
2022-08-27T03:42:00.524Z,18.31
2022-08-27T03:43:00.490Z,18.31
2022-08-27T03:44:00.520Z,18.31
2022-08-27T03:45:00.464Z,18.31
2022-08-27T03:46:02.343Z,18.29
2022-08-27T03:47:00.450Z,18.31
2022-08-27T03:48:00.458Z,18.29
2022-08-27T03:49:00.465Z,18.29
2022-08-27T03:50:00.424Z,18.28
2022-08-27T03:51:00.393Z,18.29
2022-08-27T03:52:00.423Z,18.31
2022-08-27T03:53:00.376Z,18.28
2022-08-27T03:54:00.385Z,18.29
2022-08-27T03:55:00.363Z,18.33
2022-08-27T03:56:00.352Z,18.33
2022-08-27T03:57:00.342Z,18.34
2022-08-27T03:58:00.351Z,18.35
2022-08-27T03:59:00.307Z,18.37
2022-08-27T04:00:00.342Z,18.37
2022-08-27T04:01:00.287Z,18.37
2022-08-27T04:02:00.345Z,18.37
2022-08-27T04:03:00.329Z,18.38
2022-08-27T04:04:00.259Z,18.38
2022-08-27T04:05:00.269Z,18.38
2022-08-27T04:06:00.258Z,18.40
2022-08-27T04:07:00.230Z,18.40
2022-08-27T04:08:00.214Z,18.37
2022-08-27T04:09:00.191Z,18.34
2022-08-27T04:10:00.232Z,18.35
2022-08-27T04:11:00.168Z,18.34
2022-08-27T04:12:00.187Z,18.34
2022-08-27T04:13:00.182Z,18.34
2022-08-27T04:14:00.145Z,18.33
2022-08-27T04:15:00.133Z,18.31
2022-08-27T04:16:00.206Z,18.31
2022-08-27T04:17:00.146Z,18.31
2022-08-27T04:18:00.091Z,18.29
2022-08-27T04:19:00.431Z,18.31
2022-08-27T04:20:08.709Z,18.31
2022-08-27T04:21:01.121Z,18.31
2022-08-27T04:22:00.075Z,18.35
2022-08-27T04:23:00.039Z,18.35
2022-08-27T04:24:00.044Z,18.37
2022-08-27T04:25:00.019Z,18.37
2022-08-27T04:26:00.024Z,18.38
2022-08-27T04:27:00.094Z,18.38
2022-08-27T04:28:00.010Z,18.40
2022-08-27T04:28:59.976Z,18.38
2022-08-27T04:29:59.967Z,18.40
2022-08-27T04:30:59.970Z,18.38
2022-08-27T04:31:59.957Z,18.38
2022-08-27T04:32:59.991Z,18.38
2022-08-27T04:33:59.978Z,18.38
2022-08-27T04:34:59.911Z,18.37
2022-08-27T04:35:59.917Z,18.37
2022-08-27T04:36:59.896Z,18.34
2022-08-27T04:37:59.889Z,18.35
2022-08-27T04:38:59.911Z,18.34
2022-08-27T04:39:59.895Z,18.34
2022-08-27T04:40:59.844Z,18.33
2022-08-27T04:41:59.844Z,18.31
2022-08-27T04:42:59.820Z,18.34
2022-08-27T04:43:59.814Z,18.34
2022-08-27T04:44:59.819Z,18.35
2022-08-27T04:45:59.829Z,18.37
2022-08-27T04:46:59.802Z,18.37
2022-08-27T04:47:59.762Z,18.40
2022-08-27T04:48:59.753Z,18.38
2022-08-27T04:49:59.750Z,18.41
2022-08-27T04:50:59.734Z,18.41
2022-08-27T04:51:59.763Z,18.40
2022-08-27T04:52:59.768Z,18.40
2022-08-27T04:54:01.092Z,18.40
2022-08-27T04:54:59.687Z,18.40
2022-08-27T04:55:59.691Z,18.38
2022-08-27T04:56:59.696Z,18.38
2022-08-27T04:57:59.667Z,18.38
2022-08-27T04:58:59.646Z,18.37
2022-08-27T04:59:59.635Z,18.37
2022-08-27T05:00:59.636Z,18.37
2022-08-27T05:01:59.715Z,18.37
2022-08-27T05:02:59.635Z,18.37
2022-08-27T05:03:59.627Z,18.37
2022-08-27T05:04:59.629Z,18.37
2022-08-27T05:05:59.588Z,18.37
2022-08-27T05:06:59.558Z,18.37
2022-08-27T05:07:59.575Z,18.35
2022-08-27T05:08:59.540Z,18.38
2022-08-27T05:09:59.569Z,18.34
2022-08-27T05:10:59.529Z,18.33
2022-08-27T05:11:59.520Z,18.29
2022-08-27T05:13:00.137Z,18.28
2022-08-27T05:13:59.495Z,18.26
2022-08-27T05:14:59.471Z,18.23
2022-08-27T05:15:59.547Z,18.23
2022-08-27T05:16:59.453Z,18.23
2022-08-27T05:17:59.493Z,18.22
2022-08-27T05:18:59.444Z,18.22
2022-08-27T05:19:59.451Z,18.19
2022-08-27T05:20:59.432Z,18.20
2022-08-27T05:21:59.432Z,18.23
2022-08-27T05:22:59.385Z,18.25
2022-08-27T05:23:59.382Z,18.25
2022-08-27T05:24:59.368Z,18.25
2022-08-27T05:25:59.354Z,18.26
2022-08-27T05:26:59.366Z,18.28
2022-08-27T05:27:59.363Z,18.28
2022-08-27T05:28:59.320Z,18.28
2022-08-27T05:29:59.306Z,18.25
2022-08-27T05:30:59.362Z,18.23
2022-08-27T05:31:59.326Z,18.25
2022-08-27T05:32:59.288Z,18.25
2022-08-27T05:33:59.291Z,18.23
2022-08-27T05:34:59.261Z,18.22
2022-08-27T05:35:59.248Z,18.22
2022-08-27T05:36:59.260Z,18.20
2022-08-27T05:37:59.228Z,18.22
2022-08-27T05:38:59.241Z,18.23
2022-08-27T05:39:59.260Z,18.22
2022-08-27T05:40:59.191Z,18.23
2022-08-27T05:41:59.208Z,18.22
2022-08-27T05:42:59.178Z,18.22
2022-08-27T05:43:59.178Z,18.25
2022-08-27T05:44:59.142Z,18.26
2022-08-27T05:45:59.164Z,18.28
2022-08-27T05:46:59.142Z,18.29
2022-08-27T05:47:59.162Z,18.28
2022-08-27T05:48:59.092Z,18.28
2022-08-27T05:49:59.091Z,18.29
2022-08-27T05:50:59.083Z,18.31
2022-08-27T05:51:59.088Z,18.28
2022-08-27T05:52:59.062Z,18.29
2022-08-27T05:53:59.076Z,18.28
2022-08-27T05:54:59.036Z,18.29
2022-08-27T05:55:59.039Z,18.28
2022-08-27T05:56:59.034Z,18.28
2022-08-27T05:57:59.005Z,18.31
2022-08-27T05:58:58.999Z,18.33
2022-08-27T05:59:59.018Z,18.33
2022-08-27T06:01:02.958Z,18.34
2022-08-27T06:01:59.967Z,18.35
2022-08-27T06:02:58.985Z,18.37
2022-08-27T06:03:58.933Z,18.38
2022-08-27T06:04:59.001Z,18.40
2022-08-27T06:05:58.920Z,18.40
2022-08-27T06:06:58.899Z,18.38
2022-08-27T06:07:58.893Z,18.40
2022-08-27T06:08:58.890Z,18.40
2022-08-27T06:09:58.886Z,18.41
2022-08-27T06:10:58.968Z,18.40
2022-08-27T06:11:58.851Z,18.41
2022-08-27T06:12:58.839Z,18.43
2022-08-27T06:13:58.816Z,18.44
2022-08-27T06:14:58.799Z,18.44
2022-08-27T06:15:58.850Z,18.47
2022-08-27T06:16:58.809Z,18.49
2022-08-27T06:17:58.790Z,18.50
2022-08-27T06:18:58.792Z,18.52
2022-08-27T06:19:58.747Z,18.53
2022-08-27T06:20:58.781Z,18.55
2022-08-27T06:22:01.150Z,18.55
2022-08-27T06:22:59.746Z,18.55
2022-08-27T06:23:58.714Z,18.55
2022-08-27T06:24:58.703Z,18.55
2022-08-27T06:25:58.699Z,18.55
2022-08-27T06:26:58.724Z,18.58
2022-08-27T06:27:58.685Z,18.56
2022-08-27T06:28:58.675Z,18.55
2022-08-27T06:29:58.684Z,18.59
2022-08-27T06:30:58.667Z,18.59
2022-08-27T06:31:58.638Z,18.60
2022-08-27T06:32:58.623Z,18.63
2022-08-27T06:33:58.628Z,18.63
2022-08-27T06:34:58.609Z,18.63
2022-08-27T06:35:58.638Z,18.68
2022-08-27T06:36:58.577Z,18.71
2022-08-27T06:37:58.573Z,18.74
2022-08-27T06:38:58.552Z,18.77
2022-08-27T06:39:58.618Z,18.81
2022-08-27T06:40:58.647Z,18.83
2022-08-27T06:41:58.518Z,18.81
2022-08-27T06:42:58.529Z,18.86
2022-08-27T06:43:58.640Z,18.90
2022-08-27T06:44:58.560Z,18.95
2022-08-27T06:45:58.513Z,18.96
2022-08-27T06:46:58.500Z,18.98
2022-08-27T06:47:58.461Z,19.02
2022-08-27T06:48:58.449Z,19.08
2022-08-27T06:49:58.483Z,19.09
2022-08-27T06:50:59.372Z,19.12
2022-08-27T06:51:58.446Z,19.16
2022-08-27T06:52:58.413Z,19.18
2022-08-27T06:53:58.392Z,19.19
2022-08-27T06:54:58.406Z,19.21
2022-08-27T06:55:58.374Z,19.26
2022-08-27T06:56:58.364Z,19.27
2022-08-27T06:57:58.385Z,19.29
2022-08-27T06:58:59.287Z,19.33
2022-08-27T06:59:58.323Z,19.36
2022-08-27T07:00:58.324Z,19.40
2022-08-27T07:01:58.383Z,19.45
2022-08-27T07:02:58.313Z,19.48
2022-08-27T07:03:58.289Z,19.52
2022-08-27T07:04:58.300Z,19.52
2022-08-27T07:05:58.396Z,19.51
2022-08-27T07:06:58.250Z,19.52
2022-08-27T07:07:58.269Z,19.52
2022-08-27T07:08:58.267Z,19.54
2022-08-27T07:09:58.215Z,19.51
2022-08-27T07:10:58.217Z,19.54
2022-08-27T07:11:58.182Z,19.54
2022-08-27T07:21:19.307Z,19.63
2022-08-27T07:22:10.465Z,19.64
2022-08-27T07:23:11.180Z,19.64
2022-08-27T07:24:10.422Z,19.69
2022-08-27T07:25:10.420Z,19.69
2022-08-27T07:26:10.411Z,19.69
2022-08-27T07:27:12.912Z,19.69
2022-08-27T07:28:10.586Z,19.69
2022-08-27T07:29:10.387Z,19.70
2022-08-27T07:30:10.393Z,19.73
2022-08-27T07:31:10.420Z,19.76
2022-08-27T07:32:10.345Z,19.76
2022-08-27T07:33:10.362Z,19.79
2022-08-27T07:34:10.352Z,19.82
2022-08-27T07:35:11.282Z,19.81
2022-08-27T07:36:10.314Z,19.82
2022-08-27T07:37:10.292Z,19.84
2022-08-27T07:38:10.424Z,19.85
2022-08-27T07:39:10.307Z,19.86
2022-08-27T07:40:10.267Z,19.89
2022-08-27T07:41:10.245Z,19.91
2022-08-27T07:42:10.226Z,19.92
2022-08-27T07:43:10.217Z,19.91
2022-08-27T07:44:10.228Z,19.91
2022-08-27T07:45:10.237Z,19.91
2022-08-27T07:46:10.243Z,19.89
2022-08-27T07:47:10.174Z,19.91
2022-08-27T07:48:10.285Z,19.88
2022-08-27T07:49:10.167Z,19.89
2022-08-27T07:50:10.143Z,19.92
2022-08-27T07:51:10.188Z,19.95
2022-08-27T07:52:10.123Z,19.95
2022-08-27T07:53:10.109Z,19.99
2022-08-27T07:54:10.093Z,20.00
2022-08-27T07:55:10.090Z,20.00
2022-08-27T07:56:10.090Z,20.00
2022-08-27T07:57:10.113Z,20.03
2022-08-27T07:58:11.042Z,20.03
2022-08-27T07:59:10.048Z,20.04
2022-08-27T08:00:10.030Z,20.03
2022-08-27T08:01:10.098Z,20.03
2022-08-27T08:02:10.063Z,20.04
2022-08-27T08:03:10.009Z,20.04
2022-08-27T08:04:10.028Z,20.07
2022-08-27T08:05:09.971Z,20.10
2022-08-27T08:06:09.962Z,20.14
2022-08-27T08:07:09.984Z,20.19
2022-08-27T08:08:10.090Z,20.24
2022-08-27T08:09:10.679Z,20.26
2022-08-27T08:10:09.929Z,20.32
2022-08-27T08:11:09.902Z,20.37
2022-08-27T08:12:09.916Z,20.40
2022-08-27T08:13:09.939Z,20.41
2022-08-27T08:14:09.877Z,20.44
2022-08-27T08:15:09.876Z,20.48
2022-08-27T08:16:09.846Z,20.50
2022-08-27T08:17:10.341Z,20.44
2022-08-27T08:18:09.936Z,20.43
2022-08-27T08:19:09.847Z,20.41
2022-08-27T08:20:21.839Z,20.41
2022-08-27T08:21:10.789Z,20.37
2022-08-27T08:22:09.789Z,20.36
2022-08-27T08:23:10.765Z,20.39
2022-08-27T08:24:09.770Z,20.41
2022-08-27T08:25:10.604Z,20.44
2022-08-27T08:26:09.827Z,20.47
2022-08-27T08:27:09.751Z,20.50
2022-08-27T08:28:09.966Z,20.50
2022-08-27T08:29:09.718Z,20.51
2022-08-27T08:30:10.687Z,20.52
2022-08-27T08:31:09.721Z,20.58
2022-08-27T08:32:09.690Z,20.58
2022-08-27T08:33:09.682Z,20.63
2022-08-27T08:34:09.683Z,20.69
2022-08-27T08:35:09.653Z,20.72
2022-08-27T08:36:09.645Z,20.77
2022-08-27T08:37:09.635Z,20.80
2022-08-27T08:38:09.711Z,20.82
2022-08-27T08:39:09.587Z,20.85
2022-08-27T08:40:09.646Z,20.90
2022-08-27T08:41:09.566Z,20.93
2022-08-27T08:42:09.558Z,20.95
2022-08-27T08:43:09.575Z,20.96
2022-08-27T08:44:09.556Z,20.99
2022-08-27T08:45:09.536Z,21.02
2022-08-27T08:46:09.564Z,21.03
2022-08-27T08:47:09.508Z,21.05
2022-08-27T08:48:09.717Z,21.03
2022-08-27T08:49:09.478Z,21.03
2022-08-27T08:50:09.500Z,21.02
2022-08-27T08:51:09.458Z,21.05
2022-08-27T08:52:09.447Z,21.05
2022-08-27T08:53:09.440Z,21.06
2022-08-27T08:54:09.420Z,21.09
2022-08-27T08:55:09.419Z,21.11
2022-08-27T08:56:09.455Z,21.15
2022-08-27T08:57:09.386Z,21.17
2022-08-27T08:58:09.625Z,21.20
2022-08-27T08:59:09.373Z,21.22
2022-08-27T09:00:09.353Z,21.22
2022-08-27T09:01:09.396Z,21.22
2022-08-27T09:02:13.321Z,21.25
2022-08-27T09:03:09.324Z,21.25
2022-08-27T09:04:09.370Z,21.25
2022-08-27T09:05:09.325Z,21.25
2022-08-27T09:06:09.301Z,21.27
2022-08-27T09:07:09.274Z,21.24
2022-08-27T09:08:31.983Z,21.25
2022-08-27T09:09:10.263Z,21.27
2022-08-27T09:10:09.253Z,21.27
2022-08-27T09:11:09.285Z,21.29
2022-08-27T09:12:09.217Z,21.27
2022-08-27T09:13:09.212Z,21.29
2022-08-27T09:14:12.869Z,21.33
2022-08-27T09:15:11.431Z,21.33
2022-08-27T09:16:09.357Z,21.36
2022-08-27T09:17:09.438Z,21.35
2022-08-27T09:18:14.265Z,21.33
2022-08-27T09:19:12.962Z,21.33
2022-08-27T09:20:13.340Z,21.36
2022-08-27T09:21:10.055Z,21.37
2022-08-27T09:22:09.129Z,21.39
2022-08-27T09:23:09.099Z,21.40
2022-08-27T09:24:09.124Z,21.43
2022-08-27T09:25:09.079Z,21.46
2022-08-27T09:26:09.082Z,21.46
2022-08-27T09:27:09.076Z,21.50
2022-08-27T09:28:09.172Z,21.50
2022-08-27T09:29:09.040Z,21.52
2022-08-27T09:30:09.064Z,21.55
2022-08-27T09:31:09.058Z,21.58
2022-08-27T09:32:09.019Z,21.55
2022-08-27T09:33:09.001Z,21.57
2022-08-27T09:34:08.984Z,21.57
2022-08-27T09:35:08.956Z,21.57
2022-08-27T09:36:08.962Z,21.57
2022-08-27T09:37:08.940Z,21.58
2022-08-27T09:38:08.959Z,21.60
2022-08-27T09:39:08.928Z,21.61
2022-08-27T09:40:13.599Z,21.60
2022-08-27T09:41:15.107Z,21.60
2022-08-27T09:42:08.889Z,21.57
2022-08-27T09:43:08.918Z,21.55
2022-08-27T09:44:08.869Z,21.55
2022-08-27T09:45:10.069Z,21.57
2022-08-27T09:46:08.917Z,21.60
2022-08-27T09:47:08.827Z,21.62
2022-08-27T09:48:08.924Z,21.67
2022-08-27T09:49:08.808Z,21.69
2022-08-27T09:50:08.810Z,21.72
2022-08-27T09:51:08.804Z,21.75
2022-08-27T09:52:08.791Z,21.73
2022-08-27T09:53:08.770Z,21.73
2022-08-27T09:54:08.756Z,21.75
2022-08-27T09:55:08.770Z,21.76
2022-08-27T09:56:09.087Z,21.76
2022-08-27T09:57:08.711Z,21.79
2022-08-27T09:58:08.697Z,21.79
2022-08-27T09:59:08.700Z,21.83
2022-08-27T10:00:08.725Z,21.85
2022-08-27T10:01:08.747Z,21.91
2022-08-27T10:02:11.202Z,21.95
2022-08-27T10:03:08.658Z,21.98
2022-08-27T10:04:08.688Z,22.02
2022-08-27T10:05:08.639Z,22.06
2022-08-27T10:06:08.619Z,22.08
2022-08-27T10:07:08.613Z,22.13
2022-08-27T10:08:08.677Z,22.14
2022-08-27T10:09:08.587Z,22.15
2022-08-27T10:10:08.575Z,22.18
2022-08-27T10:11:08.569Z,22.22
2022-08-27T10:12:08.556Z,22.23
2022-08-27T10:13:10.330Z,22.25
2022-08-27T10:14:08.551Z,22.25
2022-08-27T10:15:08.530Z,22.23
2022-08-27T10:16:08.534Z,22.22
2022-08-27T10:17:08.489Z,22.15
2022-08-27T10:18:08.511Z,22.04
2022-08-27T10:19:08.511Z,21.96
2022-08-27T10:20:08.483Z,21.91
2022-08-27T10:21:08.472Z,21.83
2022-08-27T10:22:08.447Z,21.85
2022-08-27T10:23:08.431Z,21.83
2022-08-27T10:24:08.411Z,21.88
2022-08-27T10:25:08.443Z,21.91
2022-08-27T10:26:08.433Z,21.92
2022-08-27T10:27:08.378Z,21.96
2022-08-27T10:28:08.363Z,21.98
2022-08-27T10:29:08.371Z,21.93
2022-08-27T10:30:08.380Z,21.92
2022-08-27T10:31:08.359Z,21.95
2022-08-27T10:32:08.392Z,21.96
2022-08-27T10:33:08.316Z,22.00
2022-08-27T10:34:08.335Z,22.06
2022-08-27T10:35:08.302Z,22.07
2022-08-27T10:36:08.276Z,22.10
2022-08-27T10:37:08.277Z,22.11
2022-08-27T10:38:08.289Z,22.15
2022-08-27T10:39:08.255Z,22.13
2022-08-27T10:40:08.369Z,22.04
2022-08-27T10:41:08.245Z,21.85
2022-08-27T10:42:08.238Z,21.79
2022-08-27T10:43:08.231Z,21.72
2022-08-27T10:44:08.189Z,21.58
2022-08-27T10:45:08.180Z,21.54
2022-08-27T10:46:08.244Z,21.54
2022-08-27T10:47:08.190Z,21.54
2022-08-27T10:48:08.271Z,21.57
2022-08-27T10:49:08.136Z,21.62
2022-08-27T10:50:08.180Z,21.67
2022-08-27T10:51:08.112Z,21.75
2022-08-27T10:52:08.608Z,21.80
2022-08-27T10:53:08.092Z,21.85
2022-08-27T10:54:08.120Z,21.91
2022-08-27T10:55:08.075Z,21.95
2022-08-27T10:56:08.063Z,22.00
2022-08-27T10:57:28.581Z,22.07
2022-08-27T10:58:09.036Z,22.14
2022-08-27T10:59:08.024Z,22.22
2022-08-27T11:00:08.095Z,22.23
2022-08-27T11:01:08.067Z,22.23
2022-08-27T11:02:08.039Z,22.26
2022-08-27T11:03:07.984Z,22.26
2022-08-27T11:04:07.968Z,22.26
2022-08-27T11:05:07.972Z,22.25
2022-08-27T11:06:07.986Z,22.25
2022-08-27T11:07:07.948Z,22.23
2022-08-27T11:08:07.938Z,22.20
2022-08-27T11:09:08.063Z,22.20
2022-08-27T11:10:07.953Z,22.20
2022-08-27T11:11:45.449Z,22.20
2022-08-27T11:12:16.112Z,22.23
2022-08-27T11:13:08.881Z,22.23
2022-08-27T11:14:07.860Z,22.23
2022-08-27T11:15:12.285Z,22.26
2022-08-27T11:16:08.922Z,22.29
2022-08-27T11:17:07.832Z,22.30
2022-08-27T11:18:07.872Z,22.33
2022-08-27T11:19:07.826Z,22.38
2022-08-27T11:20:07.918Z,22.38
2022-08-27T11:21:07.797Z,22.33
2022-08-27T11:22:07.768Z,22.32
2022-08-27T11:23:07.783Z,22.29
2022-08-27T11:24:07.788Z,22.30
2022-08-27T11:25:07.745Z,22.33
2022-08-27T11:26:07.747Z,22.38
2022-08-27T11:27:07.729Z,22.39
2022-08-27T11:28:07.749Z,22.38
2022-08-27T11:29:07.716Z,22.38
2022-08-27T11:30:07.743Z,22.38
2022-08-27T11:31:07.718Z,22.39
2022-08-27T11:32:07.657Z,22.41
2022-08-27T11:33:13.710Z,22.41
2022-08-27T11:34:08.666Z,22.43
2022-08-27T11:35:07.654Z,22.48
2022-08-27T11:36:07.619Z,22.54
2022-08-27T11:37:07.608Z,22.62
2022-08-27T11:38:07.661Z,22.66
2022-08-27T11:39:07.625Z,22.70
2022-08-27T11:40:07.662Z,22.73
2022-08-27T11:41:07.595Z,22.76
2022-08-27T11:42:07.552Z,22.78
2022-08-27T11:43:07.542Z,22.80
2022-08-27T11:44:07.536Z,22.78
2022-08-27T11:45:07.565Z,22.80
2022-08-27T11:46:07.528Z,22.81
2022-08-27T11:47:07.531Z,22.81
2022-08-27T11:48:07.525Z,22.80
2022-08-27T11:49:07.483Z,22.81
2022-08-27T11:50:07.497Z,22.84
2022-08-27T11:51:07.475Z,22.83
2022-08-27T11:52:07.444Z,22.83
2022-08-27T11:53:07.436Z,22.84
2022-08-27T11:54:07.425Z,22.83
2022-08-27T11:55:07.426Z,22.84
2022-08-27T11:56:07.394Z,22.85
2022-08-27T11:57:07.406Z,22.83
2022-08-27T11:58:07.419Z,22.75
2022-08-27T11:59:07.386Z,22.70
2022-08-27T12:00:07.359Z,22.68
2022-08-27T12:01:07.354Z,22.68
2022-08-27T12:02:07.384Z,22.69
2022-08-27T12:03:07.346Z,22.68
2022-08-27T12:04:07.393Z,22.68
2022-08-27T12:05:07.300Z,22.68
2022-08-27T12:06:07.283Z,22.72
2022-08-27T12:07:07.271Z,22.76
2022-08-27T12:08:07.337Z,22.80
2022-08-27T12:09:07.980Z,22.84
2022-08-27T12:10:07.263Z,22.85
2022-08-27T12:11:07.247Z,22.90
2022-08-27T12:12:07.238Z,22.88
2022-08-27T12:13:07.235Z,22.83
2022-08-27T12:14:07.235Z,22.78
2022-08-27T12:15:07.193Z,22.73
2022-08-27T12:16:07.239Z,22.75
2022-08-27T12:17:07.165Z,22.75
2022-08-27T12:18:07.229Z,22.78
2022-08-27T12:19:07.157Z,22.75
2022-08-27T12:20:07.161Z,22.75
2022-08-27T12:21:07.116Z,22.78
2022-08-27T12:22:08.094Z,22.83
2022-08-27T12:23:07.122Z,22.88
2022-08-27T12:24:07.114Z,22.91
2022-08-27T12:25:07.076Z,22.93
2022-08-27T12:26:07.065Z,22.94
2022-08-27T12:27:07.059Z,22.94
2022-08-27T12:28:07.160Z,22.94
2022-08-27T12:29:07.036Z,22.94
2022-08-27T12:30:07.037Z,22.93
2022-08-27T12:31:07.130Z,22.84
2022-08-27T12:32:07.074Z,22.76
2022-08-27T12:33:07.019Z,22.75
2022-08-27T12:34:06.979Z,22.73
2022-08-27T12:35:06.990Z,22.72
2022-08-27T12:36:06.953Z,22.68
2022-08-27T12:37:07.500Z,22.63
2022-08-27T12:38:06.952Z,22.54
2022-08-27T12:39:06.932Z,22.51
2022-08-27T12:40:06.979Z,22.51
2022-08-27T12:41:06.905Z,22.54
2022-08-27T12:42:06.894Z,22.51
2022-08-27T12:43:06.902Z,22.55
2022-08-27T12:44:06.923Z,22.59
2022-08-27T12:45:06.865Z,22.63
2022-08-27T12:46:06.888Z,22.66
2022-08-27T12:47:06.916Z,22.68
2022-08-27T12:48:06.891Z,22.68
2022-08-27T12:49:37.023Z,22.66
2022-08-27T12:50:07.858Z,22.63
2022-08-27T12:51:06.816Z,22.63
2022-08-27T12:52:06.785Z,22.62
2022-08-27T12:53:06.765Z,22.59
2022-08-27T12:54:06.759Z,22.59
2022-08-27T12:55:06.751Z,22.60
2022-08-27T12:56:06.772Z,22.65
2022-08-27T12:57:06.740Z,22.68
2022-08-27T12:58:06.818Z,22.70
2022-08-27T12:59:06.700Z,22.73
2022-08-27T13:00:06.750Z,22.75